Surface observations / Europe / LEMH

Quebec | Canada | USA | France | UK | Europe | Elsewhere

Display: Info & Location for LEMH | Help decoding METAR

LEMH MAHON/MENORCA ISL -- SP
Raw surface observations for station LEMH
LEMH 240830Z 22005KT 170V280 9999 FEW020 18/14 Q1019=
LEMH 240800Z 21004KT 170V270 9999 FEW020 17/14 Q1019=
LEMH 240730Z VRB02KT 9999 FEW006 19/12 Q1019=
LEMH 240700Z 02003KT 9999 FEW006 18/13 Q1019=
LEMH 240630Z 36003KT 9999 FEW006 15/14 Q1019=
LEMH 240600Z 01006KT 340V040 9000 FEW001 14/14 Q1019=
LEMH 240530Z 02006KT 3000 BR BKN001 14/13 Q1019=
LEMH 240500Z 35007KT 9999 FEW002 12/12 Q1019=
LEMH 240430Z 35003KT 9999 FEW002 12/12 Q1019=
LEMH 240400Z 36003KT 9000 FEW002 13/12 Q1019=
LEMH 240330Z 36003KT 6000 FEW002 12/12 Q1019=
LEMH 240300Z VRB01KT 0300 R01/0800U FG VV002 13/13 Q1019=
LEMH 240000Z 25003KT 220V290 3000 BR BKN001 16/15 Q1019=
LEMH 232230Z VRB02KT 9999 BKN004 15/14 Q1020=
LEMH 232200Z 23004KT 200V260 9999 BKN004 15/14 Q1020=
LEMH 232130Z 24003KT 9999 BKN005 15/14 Q1020=
LEMH 232100Z 24004KT 9999 BKN006 16/15 Q1020=
LEMH 232030Z 23005KT 200V260 9999 BKN007 16/15 Q1020=
LEMH 232000Z 23003KT 9999 BKN005 15/14 Q1020=
LEMH 231930Z 23004KT CAVOK 15/14 Q1020=
LEMH 231900Z 23004KT CAVOK 15/14 Q1019=
LEMH 231830Z 24004KT CAVOK 16/14 Q1019=
LEMH 231800Z 25007KT 200V280 9999 FEW025 17/14 Q1019=
LEMH 231730Z 25008KT 9999 FEW020 17/14 Q1019=
LEMH 231700Z 24008KT 190V290 9999 FEW020 18/14 Q1019=
LEMH 231630Z 24008KT 200V300 9999 FEW015 18/14 Q1019=
LEMH 231600Z 24009KT 190V290 9999 FEW012 18/14 Q1019=
LEMH 231530Z 24009KT 190V280 9999 FEW015 18/14 Q1019=
LEMH 231500Z 23010KT 190V280 9999 FEW018 18/14 Q1019=
LEMH 231430Z 23009KT 190V270 9999 FEW018 19/13 Q1019=
LEMH 231400Z 23008KT 160V270 9999 FEW018 19/13 Q1019=
LEMH 231330Z 22007KT 140V280 9999 FEW018 19/14 Q1019=
LEMH 231300Z 22005KT 160V270 9999 FEW018 19/13 Q1020=
LEMH 231230Z 22007KT 180V270 9999 FEW018 18/13 Q1020=
LEMH 231200Z VRB06KT 9999 FEW018 19/14 Q1020=
LEMH 231130Z 22007KT 160V290 9999 FEW018 18/13 Q1020=
LEMH 231100Z 21006KT 170V260 9999 FEW025 19/14 Q1020=
LEMH 231030Z 22004KT 160V280 9999 FEW025 19/14 Q1020=
LEMH 231000Z 23007KT 190V260 9999 FEW025 18/13 Q1020=
LEMH 230930Z 23007KT 180V270 9999 SCT022 18/14 Q1020=
LEMH 230900Z 36003KT 290V080 9999 SCT015 19/13 Q1020=
LEMH 230830Z 01005KT 300V050 9999 FEW014 18/13 Q1019=
LEMH 230800Z 02006KT 330V080 9999 FEW012 17/13 Q1019=